Thames Meander Marathon & Half on Saturday 11th March 2017

Event : Marathon, type / distance : Trail / 42.2k

at Hawker Centre, Kingston

Organised by Hermes Running

Filters

FirstnameSurnameGenderCategoryClub/TeamBib No.Sort by
Save as PDF
Pos-
ition
Bib-
No.
Finish
Time
Chip
Time
NameGen-
der
Cat-
egory
Club or TeamRank
1171 02:52:2402:52:24NEIL MARTIN M M40 OVERTON HARRIERS & AC 1
2215 02:53:0802:53:07JONATHAN RATCLIFFE M M40 HERNE HILL HARRIERS 2
3132 02:56:3302:56:30GEOFFREY HOWELL M SM 3
4167 02:58:0302:58:03NICK MARRIAGE M SM FULHAM RUNNING CLUB 4
548 02:59:2602:59:25MARIUSZ CIOSEK M SM 5
6275 03:00:2103:00:20MICHAEL WHYTE M M50 BRIGHTON PHOENIX TRIATHLON CLUB 6
7173 03:07:1003:07:08DAVID MATTHEW M M40 7
8258 03:08:3603:08:33WILL TUCKETT M SM VALE OF AYLESBURY AC 8
9178 03:09:2803:09:21ALAN MIDDLEBROOK M M40 9
1046 03:10:5203:10:51THOMAS CHEETHAM M M50 HERCULES WIMBLEDON AC 10
1118 03:12:3403:12:28STUART BAYLEY-DAINTON M M50 BECKENHAM RC 11
1269 03:12:3703:12:35KEVIN DAY M M50 12
13251 03:14:5003:14:48CHARLIE THOMAS M SM 13
14244 03:15:1403:15:08WILL SUTTON M SM WEST4HARRIERS 14
15169 03:16:3203:16:31IAIN MARTIN M M50 TEAM PROFEET 15
1693 03:16:3803:16:34JONATHAN GILMORE M SM 16
17212 03:16:5603:16:49BOB PRITCHARD M SM 17
1889 03:17:0503:17:00LUIGI FUMERO M M40 18
19124 03:17:2203:17:19SIMON HILLIARD M SM 19
2042 03:17:2803:17:27EDWARD CATMUR M SM THAMES HARE AND HOUNDS 20
21246 03:17:3703:17:28ANDREW TAIT M SM WARE JOGGERS 21
2256 03:18:5403:18:54PETE CORNISH M M50 22
23228 03:19:1703:19:08GRANT RUSSELL M M40 COMET TRIATHLON CLUB 23
2414 03:21:1503:21:03MARK BARLOW M M40 24
25204 03:22:0903:22:04SAMANTHA PICKFORD F W35 WIMBLEDON WINDMILERS 25
26185 03:23:2203:23:15CAREL M_LLER M SM 26
27196 03:23:4503:23:37JONATHAN ORMEROD M SM 27
2826 03:24:5503:24:48BENJAMIN BOWEN M SM 28
2940 03:25:3603:25:34SIMON CARSON-JONES M M40 FARNHAM TRIATHLON CLUB 29
30152 03:25:4403:25:40DAMIEN LANE M M40 HIGHGATE HARRIERS 30
31168 03:26:1003:26:06ANDREW MARSHMAN M M40 31
32317 03:26:5703:26:37GORDON MEAD M SM 32
33272 03:30:2403:30:19LIAM WHELAN M M50 BARNES RUNNERS 33
34147 03:33:0003:32:45WERNER KERSCHL M M40 CLAPHAM CHASERS 34
35227 03:33:1003:33:01JAMES RUSSELL M M40 COMET TRIATHLON CLUB 35
36154 03:33:3003:33:30ANNA LEES F W35 36
37100 03:34:1003:34:03CHRIS GRAF M M40 37
38280 03:35:1403:35:05GAIL WINTER F W45 WATFORD JOGGERS 38
3979 03:35:5503:35:47MARTIN ENGLAND M M50 CASTLE POINT JOGGERS 39
40226 03:37:2103:37:02JAMIE RUSSELL M SM DARTFORD ROAD RUNNERS 40
41187 03:37:4003:37:34CHRIS MURPHY M M40 41
42219 03:38:2403:38:16TREVOR ROBERTS M M40 42
43183 03:38:2703:38:24ANTHONY MOORE M M40 BILLERICAY STRIDERS 43
44174 03:38:4503:38:33STEVE MAY M No Info 100 MARATHON CLUB 44
4535 03:39:0303:38:46ROBERT BURLEIGH M SM 45
46270 03:39:2003:39:10ELIOTT WELLS M SM 46
47231 03:39:3103:39:22PHILIP SCRASE M M50 ALTON RUNNERS 47
4850 03:39:4203:39:31PHILIP COLLINS M M40 48
49319 03:39:4803:39:39CHRISTOPHER TWISELTON M SM 49
50162 03:40:3103:40:21KEITH LUXON M M40 BENFLEET RC 50
51253 03:40:4403:40:37LENA THOMPSON F W35 51
52155 03:40:4903:40:47MICHELLE LENNON F W45 DULWICH RUNNERS 52
53189 03:41:3203:41:25MYOORAN NATHAN M SM 53
54160 03:41:4803:41:38CRAIG LOVELOCK M M40 FETCH EVERYONE 54
55217 03:42:0703:41:55MARVIN REYNOLDS M SM 55
56218 03:42:2503:42:18CHRIS RICHARDSON M M40 CDR 56
57221 03:42:4503:42:35PAUL ROBINS M SM 57
58146 03:44:4203:44:27JORDAN KENNEDY F SW 58
59248 03:44:5603:44:39TARA TAYLOR F W45 TUNBRIDGE WELLS HARRIERS 59
6077 03:45:3503:45:30LEE EDWARDS M M40 PLUMSTEAD RUNNERS 60
6162 03:46:4603:46:38LASZLO CSIBI M M40 61
6298 03:48:4103:48:38DEWI GOULD M JM 62
63134 03:49:2903:48:58DAVID IRELAND M M40 63
6424 03:49:3703:49:14SUNJAY BHOGAL M M40 STRIDERS OF CROYDON 64
65254 03:49:4303:49:32ALEX THORNTON M SM 65
6660 03:49:4703:49:45ROB CRAWFORD M M40 66
67182 03:49:5003:49:46JAMES MOORE M SM 67
68237 03:50:1203:50:00MATT SOWTON M SM RANELAGH HARRIERS 68
69115 03:50:2303:50:18SIMON HASSETT M M40 DARTFORD ROAD RUNNERS 69
70236 03:51:0403:50:48PETE SOVEGJARTO M M50 70
7115 03:51:2403:51:12DAVID BARR M M40 100 MARATHON CLUB 71
7229 03:52:0703:51:58NICK BRACEY M M50 AVON VALLEY RUNNERS 72
73159 03:53:2003:52:55DEAN LONGMAN M M40 YAXLEY RUNNERS 73
7443 03:53:3903:53:30DEAN CHAMBERS M M50 100 MARATHON CLUB 74
75108 03:54:0503:53:55ALAN HARESNAPE M M50 75
7647 03:54:0603:54:01NOELEEN CHURCHILL F W45 76
77249 03:54:2303:54:12JAMES TEMPERLEY M M40 77
7849 03:54:3003:54:16JANET COBBY F W55 100 MARATHON CLUB 78
79157 03:54:3003:54:15DAVID LEWIS M M50 100 MARATHON CLUB 79
8039 03:54:5603:54:45NEIL CARRINGTON M M40 THE STRAGGLERS RC 80
81136 03:55:5303:55:46STEVE JACKSON M M40 81
8212 03:55:5703:55:34CHRISTOPHER BAKER M SM 82
83105 03:56:1103:56:00RAY GURVITZ M M50 83
84107 03:56:2003:56:01TAKASHI HARAZAWA M M50 84
855 03:57:2603:57:24STEPHEN ALLISTON M M40 85
86114 03:57:2603:57:15NIGEL HARRISON M M40 IPSWICH JAFFA 86
87239 03:58:0303:57:54SIMON STAPLES M SM FETCH EVERYONE 87
88207 03:58:0603:57:45PAUL POWELL M M40 88
89110 03:58:3303:58:29PAUL HARPER M SM 89
9019 03:58:3503:58:32RICHARD BAZELEY M SM VALE OF AYLESBURY AC 90
91265 03:59:2003:59:07KIM WARNER M M60 WOKING AC 91
92263 03:59:4003:59:38JOHAN VON SOLMS M M40 92
93139 03:59:4403:59:38GEORGE JERRAM M SM 93
9488 03:59:4703:59:16GRAHAM FULLER M M60 94
95145 04:00:1503:59:57MICHAEL IAN KENNARD M M40 TUNBRIDGE WELLS HARRIERS 95
96163 04:01:1804:01:14ELAINE LYONS F SW 96
9782 04:01:5504:01:41ANNA FINN F W35 100 MARATHON CLUB 97
98283 04:01:5904:01:59ALAN YAN M SM 98
99125 04:02:3304:02:09JONATHAN HOBBS M M40 99
100130 04:03:5104:03:33SANDRA HOPKINS F W45 PORTSMOUTH JOGGERS 100
101180 04:05:4804:05:42PAUL MONAGHAN M SM READING ROADRUNNERS 101
102137 04:05:4804:05:43CAROLINE JACKSON F W35 READING ROADRUNNERS 102
10376 04:05:5804:05:37PAM DRIZEN F W35 WATFORD JOGGERS 103
10495 04:06:2204:06:13ANDREW GOLDING M M50 WARE JOGGERS 104
105213 04:07:1904:06:53MATTHEW PULLEN M M40 CAMBRIDGE TRIATHLON CLUB 105
106127 04:08:0504:07:54SUZANNE HOFF F W45 FLYERS SOUTHEND 106
1073 04:08:1304:07:58STEWART ALDEN M M40 WINCHESTER AND DISTRICT AC 107
108259 04:08:3004:08:23EDWARD TUCKETT M SM 108
109208 04:08:4604:08:31CHRIS POYNTER M M50 109
110103 04:08:5504:08:49ANDREW GRIFFITHS M SM 110
111211 04:09:1104:08:57PHIL PRITCHARD M SM 111
11231 04:09:2404:09:18MATTHEW BROOKER M M40 112
1136 04:09:2704:09:22PAOLO APICELLA M M40 113
114129 04:09:3604:09:11EMMA HOLMES F W35 MOJO 114
115278 04:10:1704:09:50SIMON WILLIAMS M SM 115
116301 04:10:5704:10:29ELLIOT WILKINSON M SM 116
11758 04:11:2404:11:12GLYN COTTON M M40 117
118141 04:11:3104:11:13CHRISTOPHER JONES M M50 BEARCAT RUNNING CLUB 118
11941 04:12:0604:11:46LAURA CARVER F SW 119
12030 04:12:2104:11:54PETE BRENNAN M M50 120
121116 04:12:5404:12:35RUTH HAVIS F W35 BILLERICAY STRIDERS 121
12257 04:13:1104:12:53ELLEN COTTOM F W35 100 MARATHON CLUB 122
12378 04:13:1304:12:51ROGER EMSLIE M M40 123
124150 04:13:1304:12:51GUY LAISTER M SM EPSOM & EWELL HARRIERS 124
12596 04:14:1604:14:01SHELLEY GOOCH-SMIH F W35 TCW 125
126222 04:14:1604:14:02JASON ROGERS M M40 TCW 126
127102 04:15:0104:14:46RICHARD GRIFFIN M M60 BLACKHEATH AND BROMLEY HARRIERS 127
12883 04:15:1004:14:56MICHAEL FIRMSTONE M SM READING ROADRUNNERS 128
12999 04:15:1304:14:49GWYN GOULD M M50 129
130245 04:15:4504:15:23SEAN SYMONDS M M50 BUNGAY BLACK DOGS 130
131165 04:15:5804:15:34ALISON MACOWAN F W45 PETTS WOOD RUNNERS 131
1327 04:16:0304:15:50STEVEN ARCHER M M40 132
13370 04:16:0904:15:55VARINA DELRIEU F W35 TRAIL RUNNING ASSOCIATION 133
134238 04:17:4904:17:37CLAIRE SPENDLEY F SW 134
135274 04:17:5504:17:34ALLY WHITLOCK F W35 STRIDERS OF CROYDON 135
13661 04:18:2004:18:08DUNCAN CROSBIE M M40 THE STRAGGLERS RC 136
137223 04:18:2104:17:41RUSS ROOK M M40 137
138282 04:18:2404:18:10LINDA WOODARD F W45 FELIXSTOWE ROAD RUNNERS 138
139118 04:18:3004:18:09PAUL HAYLER M M40 139
140138 04:19:3104:19:14CLARE JAMIESON F W35 140
141191 04:19:4104:19:11EDDIE NEUVILLE M M40 141
142119 04:20:0904:19:41CLIVE HEARN M M40 100 MARATHON CLUB 142
143273 04:20:1604:19:48ROBERT WHITEHEAD M M40 143
144188 04:21:0604:11:16JANOS NAGY M SM 144
145257 04:23:3304:23:25MARK TRAVERS M M50 ST ALBANS STRIDERS 145
146255 04:25:4204:25:15PAUL TONKS M M40 146
14725 04:26:0404:25:57JON BLACKIE M M40 147
148279 04:26:1904:26:00SIMON WILLIAMS M M50 148
149192 04:27:1004:27:07NICK NICHOLSON M M40 100 MARATHON CLUB 149
150250 04:27:1404:26:52JACQUI THIJM F W45 150
151101 04:28:3404:28:17ANA-MARIA GREEN F W45 TUNBRIDGE WELLS HARRIERS 151
15266 04:29:5304:29:34MEGAN DAVIES F SW 152
153216 04:31:2004:31:00LINDSAY REISSER-WESTON F W45 153
15444 04:31:2404:30:54PAULETTE CHARLERY F W35 154
1554 04:32:4104:32:26GERRY ALGER M M60 BLACKHEATH AND BROMLEY HARRIERS 155
15684 04:32:5804:32:31COSTAS FLEVAS M SM 100 MARATHON CLUB 156
157269 04:32:5904:32:32JULIA WELLINGS F W35 100 MARATHON CLUB 157
158318 04:33:4404:33:13PASCALE MARONEY F W35 Good Gym 158
159202 04:34:2004:33:55DAVID PEDRICK M SM 159
16065 04:36:5904:36:50GARETH DAVIES M SM 160
16137 04:37:1504:36:46MARTIN RICHARD BUSH M M50 100 MARATHON CLUB 161
162264 04:37:3504:37:22MICHAEL WARNER M M60 WOKING AC 162
16310 04:38:2304:37:59PETE ATKINSON M M40 PETTS WOOD RUNNERS 163
164181 04:38:4804:38:24JUSTIN MOORE M M40 164
16532 04:39:1104:38:40NATHAN BROWNE M M40 165
166158 04:39:4904:39:24STEPHEN LONERGAN M M40 166
16791 04:40:0004:39:33WENDY GAINHAM F W45 167
168133 04:43:0304:42:55SHARIEF IBRAHIM M M60 WALTON AC 168
169170 04:43:3004:43:26LEIGH MARTIN M M40 169
170144 04:44:0604:43:37RICHARD KEATLEY M SM TEIGNBRIDGE TROTTERS 170
171112 04:44:1904:44:05ELAINE HARRIS F SW 171
1722 04:44:2204:44:18DARREL ADAMS M M40 ISTEAD AND IFIELD HARRIERS 172
173267 04:44:4404:44:30CALUM WATSON M M40 173
174199 04:44:4904:44:35TAMSIN PASSMORE F W45 174
17564 04:45:3404:45:18GARETH DAVIES M M50 100 MARATHON CLUB 175
176106 04:46:4904:46:22JOHANNA HADLEY F SW DUNSTABLE ROAD RUNNERS 176
177153 04:46:5104:46:23ROBERT LEE M SM DUNSTABLE ROAD RUNNERS 177
17852 04:47:0804:46:48JAMES COOPER M SM 178
1799 04:47:2204:47:06JENNI ARNOLD F SW 179
18097 04:47:2304:47:07TOM GOODALL M SM 180
18187 04:47:2704:46:58MARK FULLER M M50 UKRUNCHAT 181
182195 04:47:3404:47:12IAN ODGERS M M40 DEREHAM RUNNERS 182
18381 04:48:0504:47:47SIMON FAWCETT M SM 183
184233 04:48:4404:48:26ANN SHELLARD F W45 WIMBLEDON WINDMILERS 184
1851 04:49:0204:48:55NORMAN ABADIANO M M40 ORPINGTON ROAD RUNNERS 185
18622 04:49:3904:49:29ANITA BERWICK F W35 GADE VALLEY HARIERS 186
18790 04:50:5204:50:27EMMA GABB F W35 187
18885 04:51:0204:50:28PETER FROST M M50 188
18913 04:51:0404:50:46PATSY BAKER F W45 100 MARATHON CLUB 189
19021 04:51:0604:50:47SHELLEY BENNETT F W45 THAME RUNNERS 190
191247 04:51:0704:50:37VICTORIA TANTONY F W35 191
192240 04:51:4704:51:36RICHARD STATON M M40 FARNHAM TRIATHLON CLUB 192
19375 04:53:3204:53:18MARTIN DOWLE M M50 193
194203 04:53:4804:53:30DAVE PENDLETON M M50 HASTINGS RUNNERS 194
1958 04:53:5704:53:53TOM ARNOLD M SM 195
19627 04:53:5804:53:38WILLIAM BOWEN-DAVIES M M40 FLYERS SOUTHEND 196
197190 04:53:5904:53:40GERT NEL M M40 FLYERS SOUTHEND 197
19867 04:55:3304:55:17MARY DAVIS F W45 VEGETARIAN CYCLING & AC 198
199220 04:55:3304:55:12IAN ROBERTSON M M40 CHICHESTER RUNNERS & AC 199
200151 04:56:3704:56:26KIERRAN LAKELAND M SM HEDGE END RUNNING CLUB 200
20171 04:57:0504:56:47MURIEL DEMARCUS F W35 201
202142 05:00:2605:00:07TIM JURY M M60 HASTINGS RUNNERS 202
203262 05:00:4505:00:25LYNETTE VOIGT F W55 203
204122 05:00:4605:00:27JON HIBBEN M M40 FLYERS SOUTHEND 204
20538 05:01:3905:01:12TESSA CAMPBELL F W55 WEST4HARRIERS 205
206198 05:01:4305:01:26NEIL PAGET M M60 206
207166 05:04:1905:04:00PAUL MANSFIELD M SM TRAIL RUNNING ASSOCIATION 207
208104 05:04:3605:04:17MICHELLE GRUDZINSKI F W35 NORTH HERTS ROAD RUNNERS 208
20992 05:04:5305:04:42GEMMA GILBERT F SW IPSWICH JAFFA 209
210117 05:05:1305:04:50GARETH HAY M SM 210
211225 05:05:3505:05:08JAYNE RUDOLPH F W35 211
212210 05:09:4105:09:10CHRIS PREVETT M M40 212
213242 05:12:4605:12:19MAUREEN SU F W35 RUN THROUGH 213
214186 05:13:0605:12:45MARY MURPHY F W55 100 MARATHON CLUB 214
215302 05:13:2505:13:04JEFF SPRINGFORD M M40 215
216109 05:15:3505:15:11SUE HARGADON F W55 IPSWICH TRIATHLON CLUB 216
21772 05:17:1005:16:41LOUISE DIEZ F W45 FITTLEWORTH FLYERS 217
218172 05:17:1105:16:41THERESA MASSEY F W35 100 MARATHON CLUB 218
219161 05:17:1305:16:51ROY LUCKMUN M M50 219
220214 05:17:5705:17:35PRASHAN RAMPERSAD M M40 220
221176 05:20:3305:20:19MARK MCLOUGHLIN M M50 LEIGHTON FUN RUNNERS 221
222143 05:27:5205:27:24ELENI KASAPI F W45 GCRC 222
223121 05:31:5905:31:42LISA HEWITT-COTTOM F W35 100 MARATHON CLUB 223
22473 05:31:5905:31:38ROBERT DONOVAN M M70 PEEL ROAD RUNNERS 224
225261 05:33:0905:32:43ZOPHANIE VAZQUEZ-HOWARD F W45 WAVERLEY HARRIERS 225
22668 05:33:0905:32:50EMMA DAVIS F W45 LEIGHTON FUN RUNNERS 226
227234 05:33:2205:32:53JAGJIT SINGH M M50 BA LONDON CLUB 227
22863 05:33:2205:32:54DAVID DAVIDSON M M50 PITSEA RC 228
229184 05:34:0905:33:50LESLEY MUGGERIDGE F W45 LEIGHTON FUN RUNNERS 229
230193 05:34:0905:33:44CHARMAINE NICKS F W45 230
231179 05:43:2405:43:04PETER MIZZI M M50 231
232131 05:51:4705:51:24KIM HOWARD F W55 232
23333 05:51:4705:51:25OLIVER BROWNE M SM ILFORD AC 233
234201 06:00:3306:00:07JOSEPHINE PEASLAND F W45 WESTBOURNE RC 234
23545 06:11:0206:10:37GRACE CHARLEY F W35 COLLINGWOOD AC 235
23653 06:11:0706:10:42PAUL COOPER M M40 COLLINGWOOD AC 236
23736 06:11:1506:10:45ANNA BURNS F W35 237
238320 06:17:1106:17:09MALCOLM BROOKES M M70 100 MARATHON CLUB 238